createdAt,value
2022-12-23T00:00:17.912Z,53.59
2022-12-23T00:02:46.929Z,53.60
2022-12-23T00:05:14.637Z,53.59
2022-12-23T00:07:41.717Z,54.10
2022-12-23T00:10:10.095Z,53.57
2022-12-23T00:12:37.350Z,53.78
2022-12-23T00:15:05.411Z,53.66
2022-12-23T00:17:32.992Z,53.62
2022-12-23T00:20:01.743Z,54.04
2022-12-23T00:22:29.794Z,53.75
2022-12-23T00:24:59.668Z,53.59
2022-12-23T00:27:28.777Z,53.93
2022-12-23T00:30:01.874Z,53.73
2022-12-23T00:32:29.117Z,53.63
2022-12-23T00:34:56.853Z,53.51
2022-12-23T00:37:25.911Z,53.72
2022-12-23T00:39:55.197Z,53.75
2022-12-23T00:42:23.875Z,53.69
2022-12-23T00:44:54.458Z,53.73
2022-12-23T00:47:21.951Z,53.91
2022-12-23T00:49:51.903Z,53.89
2022-12-23T00:52:20.511Z,54.08
2022-12-23T00:54:50.432Z,53.62
2022-12-23T00:57:18.948Z,53.84
2022-12-23T00:59:46.533Z,54.27
2022-12-23T01:02:13.887Z,53.99
2022-12-23T01:04:41.251Z,53.80
2022-12-23T01:07:08.579Z,53.66
2022-12-23T01:09:36.492Z,53.69
2022-12-23T01:12:06.452Z,54.19
2022-12-23T01:14:35.552Z,54.16
2022-12-23T01:17:03.679Z,54.14
2022-12-23T01:19:31.647Z,53.63
2022-12-23T01:21:59.000Z,54.24
2022-12-23T01:24:28.571Z,54.09
2022-12-23T01:26:55.902Z,53.96
2022-12-23T01:29:25.148Z,54.02
2022-12-23T01:31:52.363Z,53.82
2022-12-23T01:34:19.995Z,54.23
2022-12-23T01:36:47.073Z,54.17
2022-12-23T01:39:14.396Z,53.98
2022-12-23T01:41:41.545Z,54.04
2022-12-23T01:44:41.867Z,54.07
2022-12-23T01:47:16.488Z,54.19
2022-12-23T01:49:44.627Z,54.11
2022-12-23T01:52:13.688Z,54.24
2022-12-23T01:54:43.432Z,54.48
2022-12-23T01:57:11.142Z,54.45
2022-12-23T01:59:38.807Z,54.31
2022-12-23T02:02:06.151Z,55.53
2022-12-23T02:04:34.953Z,53.79
2022-12-23T02:07:03.355Z,53.88
2022-12-23T02:09:32.709Z,54.01
2022-12-23T02:12:43.560Z,54.07
2022-12-23T02:15:26.707Z,53.75
2022-12-23T02:18:10.466Z,53.87
2022-12-23T02:21:05.706Z,54.80
2022-12-23T02:24:00.366Z,53.41
2022-12-23T02:27:05.602Z,54.49
2022-12-23T02:30:01.897Z,54.71
2022-12-23T02:32:48.625Z,54.21
2022-12-23T02:35:29.271Z,54.60
2022-12-23T02:38:09.763Z,54.91
2022-12-23T02:40:45.248Z,53.96
2022-12-23T02:43:23.861Z,53.02
2022-12-23T02:46:00.439Z,54.60
2022-12-23T02:48:35.455Z,52.64
2022-12-23T02:51:06.474Z,52.04
2022-12-23T02:53:38.028Z,53.69
2022-12-23T02:56:09.050Z,52.30
2022-12-23T02:58:43.102Z,52.88
2022-12-23T03:01:14.868Z,52.33
2022-12-23T03:03:47.654Z,52.78
2022-12-23T03:06:22.292Z,52.46
2022-12-23T03:08:54.105Z,53.10
2022-12-23T03:11:21.289Z,53.54
2022-12-23T03:14:19.669Z,52.33
2022-12-23T03:17:01.046Z,52.57
2022-12-23T03:19:40.170Z,51.99
2022-12-23T03:22:19.987Z,52.83
2022-12-23T03:24:56.457Z,51.55
2022-12-23T03:27:31.237Z,52.81
2022-12-23T03:30:05.973Z,53.54
2022-12-23T03:32:39.230Z,52.96
2022-12-23T03:35:14.056Z,52.81
2022-12-23T03:37:46.877Z,52.76
2022-12-23T03:40:19.677Z,53.98
2022-12-23T03:42:53.122Z,51.53
2022-12-23T03:45:41.978Z,52.45
2022-12-23T03:48:19.700Z,52.96
2022-12-23T03:50:54.547Z,52.69
2022-12-23T03:53:28.572Z,52.96
2022-12-23T03:56:03.004Z,52.45
2022-12-23T03:58:39.080Z,51.54
2022-12-23T04:01:18.293Z,51.85
2022-12-23T04:03:56.243Z,52.22
2022-12-23T04:06:33.426Z,52.24
2022-12-23T04:09:04.542Z,51.76
2022-12-23T04:11:33.422Z,53.10
2022-12-23T04:14:00.613Z,51.90
2022-12-23T04:16:29.931Z,51.21
2022-12-23T04:18:57.128Z,51.47
2022-12-23T04:21:26.874Z,51.30
2022-12-23T04:23:53.994Z,52.33
2022-12-23T04:26:21.238Z,51.62
2022-12-23T04:28:48.457Z,51.05
2022-12-23T04:31:15.528Z,51.92
2022-12-23T04:33:42.832Z,52.26
2022-12-23T04:36:09.955Z,51.66
2022-12-23T04:38:38.482Z,52.07
2022-12-23T04:41:05.629Z,52.13
2022-12-23T04:43:32.755Z,51.81
2022-12-23T04:45:59.784Z,52.42
2022-12-23T04:48:27.080Z,52.55
2022-12-23T04:50:54.433Z,51.73
2022-12-23T04:53:21.643Z,52.79
2022-12-23T04:55:52.268Z,52.21
2022-12-23T04:58:19.445Z,52.37
2022-12-23T05:00:46.692Z,52.18
2022-12-23T05:03:14.213Z,52.57
2022-12-23T05:05:43.572Z,51.98
2022-12-23T05:08:10.720Z,51.68
2022-12-23T05:10:37.863Z,52.67
2022-12-23T05:13:06.360Z,53.39
2022-12-23T05:15:33.556Z,53.22
2022-12-23T05:18:00.773Z,52.62
2022-12-23T05:20:28.002Z,51.86
2022-12-23T05:22:55.145Z,52.63
2022-12-23T05:25:22.279Z,52.46
2022-12-23T05:27:49.477Z,51.94
2022-12-23T05:30:18.243Z,52.08
2022-12-23T05:32:45.394Z,52.41
2022-12-23T05:35:12.633Z,52.42
2022-12-23T05:37:39.852Z,52.53
2022-12-23T05:40:08.472Z,53.14
2022-12-23T05:42:35.852Z,52.28
2022-12-23T05:45:03.094Z,53.10
2022-12-23T05:47:31.768Z,52.38
2022-12-23T05:49:59.012Z,52.49
2022-12-23T05:52:26.155Z,52.72
2022-12-23T05:54:54.128Z,52.36
2022-12-23T05:57:21.674Z,51.85
2022-12-23T05:59:49.033Z,52.65
2022-12-23T06:02:16.482Z,52.63
2022-12-23T06:04:45.251Z,52.11
2022-12-23T06:07:12.402Z,51.50
2022-12-23T06:09:39.738Z,52.32
2022-12-23T06:12:07.388Z,52.49
2022-12-23T06:14:34.458Z,51.92
2022-12-23T06:17:01.726Z,52.77
2022-12-23T06:19:29.013Z,52.14
2022-12-23T06:21:57.707Z,52.34
2022-12-23T06:24:24.895Z,51.40
2022-12-23T06:26:56.830Z,52.12
2022-12-23T06:29:25.074Z,52.58
2022-12-23T06:31:52.444Z,52.13
2022-12-23T06:34:19.634Z,52.05
2022-12-23T06:36:46.983Z,51.47
2022-12-23T06:39:15.622Z,52.32
2022-12-23T06:41:42.887Z,52.60
2022-12-23T06:44:10.031Z,52.95
2022-12-23T06:46:37.217Z,52.45
2022-12-23T06:49:09.153Z,51.99
2022-12-23T06:51:39.989Z,54.99
2022-12-23T06:54:07.289Z,53.61
2022-12-23T06:56:35.833Z,53.78
2022-12-23T06:59:03.038Z,52.87
2022-12-23T07:01:30.442Z,52.21
2022-12-23T07:03:57.875Z,52.33
2022-12-23T07:06:25.120Z,52.15
2022-12-23T07:08:52.384Z,52.36
2022-12-23T07:11:19.576Z,53.62
2022-12-23T07:13:48.406Z,51.81
2022-12-23T07:16:15.625Z,52.54
2022-12-23T07:18:42.896Z,51.69
2022-12-23T07:21:19.790Z,51.72
2022-12-23T07:23:52.562Z,51.88
2022-12-23T07:26:19.707Z,52.26
2022-12-23T07:28:48.340Z,52.42
2022-12-23T07:31:16.119Z,52.06
2022-12-23T07:33:44.037Z,52.03
2022-12-23T07:36:11.487Z,51.86
2022-12-23T07:38:38.653Z,52.51
2022-12-23T07:41:05.909Z,52.43
2022-12-23T07:43:33.211Z,51.09
2022-12-23T07:46:06.849Z,50.03
2022-12-23T07:48:34.486Z,48.44
2022-12-23T07:51:02.060Z,49.05
2022-12-23T07:53:29.351Z,49.46
2022-12-23T07:55:57.154Z,49.81
2022-12-23T07:58:24.928Z,50.32
2022-12-23T08:00:59.718Z,50.60
2022-12-23T08:03:28.973Z,50.52
2022-12-23T08:06:05.101Z,52.41
2022-12-23T08:08:33.681Z,50.73
2022-12-23T08:11:02.941Z,51.52
2022-12-23T08:13:32.067Z,51.05
2022-12-23T08:16:01.654Z,52.04
2022-12-23T08:18:33.134Z,52.42
2022-12-23T08:21:02.480Z,52.22
2022-12-23T08:23:31.190Z,52.15
2022-12-23T08:26:00.471Z,52.58
2022-12-23T08:28:28.056Z,52.14
2022-12-23T08:30:55.332Z,52.81
2022-12-23T08:33:22.876Z,53.09
2022-12-23T08:35:54.607Z,52.71
2022-12-23T08:38:21.951Z,51.24
2022-12-23T08:40:49.286Z,51.52
2022-12-23T08:43:16.503Z,49.48
2022-12-23T08:45:43.809Z,49.08
2022-12-23T08:48:11.296Z,48.34
2022-12-23T08:50:38.991Z,48.05
2022-12-23T08:53:08.324Z,49.42
2022-12-23T08:55:39.992Z,49.30
2022-12-23T08:58:08.001Z,49.67
2022-12-23T09:00:36.268Z,50.51
2022-12-23T09:03:04.002Z,50.90
2022-12-23T09:05:31.647Z,51.23
2022-12-23T09:07:59.633Z,51.14
2022-12-23T09:10:28.399Z,51.85
2022-12-23T09:12:57.958Z,51.74
2022-12-23T09:15:28.420Z,51.64
2022-12-23T09:17:55.585Z,51.86
2022-12-23T09:20:22.786Z,52.60
2022-12-23T09:22:50.214Z,52.60
2022-12-23T09:25:17.509Z,52.56
2022-12-23T09:27:46.194Z,52.63
2022-12-23T09:30:14.586Z,53.06
2022-12-23T09:32:41.965Z,52.23
2022-12-23T09:35:10.046Z,52.20
2022-12-23T09:37:37.299Z,52.64
2022-12-23T09:40:06.398Z,52.93
2022-12-23T09:42:53.493Z,52.44
2022-12-23T09:45:43.245Z,52.49
2022-12-23T09:48:16.557Z,52.26
2022-12-23T09:50:44.325Z,52.39
2022-12-23T09:53:18.248Z,52.12
2022-12-23T09:55:52.875Z,52.09
2022-12-23T09:58:30.159Z,52.13
2022-12-23T10:01:11.137Z,52.37
2022-12-23T10:03:59.367Z,52.49
2022-12-23T10:06:30.592Z,51.64
2022-12-23T10:09:02.828Z,52.25
2022-12-23T10:11:34.372Z,52.63
2022-12-23T10:14:14.876Z,52.42
2022-12-23T10:16:47.299Z,53.14
2022-12-23T10:19:23.909Z,52.43
2022-12-23T10:21:56.245Z,53.33
2022-12-23T10:24:26.274Z,52.70
2022-12-23T10:26:55.479Z,52.44
2022-12-23T10:29:26.560Z,52.80
2022-12-23T10:32:07.128Z,52.81
2022-12-23T10:34:45.018Z,52.21
2022-12-23T10:37:24.930Z,52.46
2022-12-23T10:40:09.191Z,52.40
2022-12-23T10:42:44.253Z,52.38
2022-12-23T10:45:28.419Z,52.26
2022-12-23T10:48:17.898Z,53.15
2022-12-23T10:50:59.526Z,52.24
2022-12-23T10:53:37.463Z,52.61
2022-12-23T10:56:07.631Z,52.03
2022-12-23T10:58:40.777Z,52.41
2022-12-23T11:01:24.064Z,52.73
2022-12-23T11:04:03.435Z,52.44
2022-12-23T11:06:37.233Z,52.28
2022-12-23T11:09:07.209Z,52.39
2022-12-23T11:11:59.575Z,52.82
2022-12-23T11:14:36.403Z,52.09
2022-12-23T11:17:17.948Z,52.42
2022-12-23T11:19:45.453Z,52.85
2022-12-23T11:22:24.641Z,52.71
2022-12-23T11:24:55.383Z,52.86
2022-12-23T11:27:23.259Z,52.29
2022-12-23T11:29:55.065Z,52.10
2022-12-23T11:32:27.692Z,52.41
2022-12-23T11:34:56.702Z,52.25
2022-12-23T11:37:31.037Z,52.68
2022-12-23T11:39:58.273Z,52.61
2022-12-23T11:42:31.414Z,53.09
2022-12-23T11:45:00.776Z,52.91
2022-12-23T11:47:38.752Z,53.06
2022-12-23T11:50:31.375Z,52.83
2022-12-23T11:53:10.397Z,52.90
2022-12-23T11:55:45.434Z,53.96
2022-12-23T11:58:19.917Z,53.13
2022-12-23T12:00:56.063Z,53.16
2022-12-23T12:03:31.369Z,54.04
2022-12-23T12:06:03.872Z,54.28
2022-12-23T12:08:34.072Z,53.83
2022-12-23T12:11:06.194Z,54.68
2022-12-23T12:13:40.114Z,54.56
2022-12-23T12:16:31.314Z,54.96
2022-12-23T12:19:05.474Z,54.12
2022-12-23T12:21:38.103Z,54.76
2022-12-23T12:24:18.845Z,54.48
2022-12-23T12:26:52.464Z,54.95
2022-12-23T12:29:30.976Z,55.20
2022-12-23T12:32:01.702Z,54.86
2022-12-23T12:34:42.137Z,55.64
2022-12-23T12:37:22.358Z,55.63
2022-12-23T12:39:57.773Z,55.55
2022-12-23T12:42:34.631Z,55.50
2022-12-23T12:45:18.072Z,55.14
2022-12-23T12:48:02.159Z,55.98
2022-12-23T12:50:48.883Z,56.07
2022-12-23T12:53:21.444Z,55.67
2022-12-23T12:55:55.861Z,55.40
2022-12-23T12:58:25.138Z,54.97
2022-12-23T13:01:07.791Z,55.04
2022-12-23T13:04:03.251Z,54.37
2022-12-23T13:06:42.612Z,54.96
2022-12-23T13:09:23.062Z,54.72
2022-12-23T13:11:59.533Z,54.14
2022-12-23T13:14:41.976Z,53.83
2022-12-23T13:17:19.927Z,54.19
2022-12-23T13:20:00.568Z,54.70
2022-12-23T13:22:34.231Z,54.33
2022-12-23T13:25:09.320Z,53.89
2022-12-23T13:27:46.742Z,53.91
2022-12-23T13:30:18.632Z,53.63
2022-12-23T13:33:13.393Z,53.63
2022-12-23T13:36:06.738Z,53.68
2022-12-23T13:38:57.826Z,53.58
2022-12-23T13:41:33.157Z,53.40
2022-12-23T13:44:03.013Z,53.37
2022-12-23T13:46:44.327Z,52.92
2022-12-23T13:49:25.536Z,53.35
2022-12-23T13:52:04.695Z,53.15
2022-12-23T13:54:46.781Z,53.66
2022-12-23T13:57:31.953Z,53.48
2022-12-23T14:00:06.291Z,53.61
2022-12-23T14:02:50.642Z,53.68
2022-12-23T14:05:31.356Z,54.14
2022-12-23T14:08:00.732Z,53.63
2022-12-23T14:10:37.520Z,54.22
2022-12-23T14:13:08.172Z,54.23
2022-12-23T14:16:14.773Z,54.43
2022-12-23T14:19:07.172Z,54.00
2022-12-23T14:21:46.872Z,54.46
2022-12-23T14:24:49.303Z,54.39
2022-12-23T14:27:35.727Z,54.40
2022-12-23T14:30:13.383Z,54.44
2022-12-23T14:32:47.724Z,54.83
2022-12-23T14:35:53.507Z,54.17
2022-12-23T14:38:31.589Z,55.30
2022-12-23T14:41:23.460Z,56.13
2022-12-23T14:44:00.980Z,54.74
2022-12-23T14:46:58.334Z,54.85
2022-12-23T14:49:55.848Z,54.55
2022-12-23T14:53:07.270Z,54.72
2022-12-23T14:55:55.964Z,55.34
2022-12-23T14:58:52.731Z,54.93
2022-12-23T15:01:30.249Z,54.67
2022-12-23T15:04:01.757Z,55.09
2022-12-23T15:06:36.155Z,55.00
2022-12-23T15:09:05.245Z,54.35
2022-12-23T15:11:36.037Z,54.68
2022-12-23T15:14:09.924Z,54.83
2022-12-23T15:16:39.761Z,54.10
2022-12-23T15:19:19.058Z,55.02
2022-12-23T15:21:50.365Z,54.91
2022-12-23T15:24:23.372Z,55.08
2022-12-23T15:27:25.418Z,55.61
2022-12-23T15:30:15.944Z,55.14
2022-12-23T15:33:01.982Z,55.71
2022-12-23T15:36:06.113Z,56.27
2022-12-23T15:38:38.907Z,55.18
2022-12-23T15:41:15.205Z,54.92
2022-12-23T15:43:43.754Z,55.62
2022-12-23T15:46:18.912Z,55.61
2022-12-23T15:48:50.261Z,55.72
2022-12-23T15:51:50.137Z,55.83
2022-12-23T15:54:24.505Z,55.11
2022-12-23T15:56:54.252Z,54.74
2022-12-23T15:59:26.936Z,54.67
2022-12-23T16:01:54.871Z,55.11
2022-12-23T16:04:28.081Z,54.47
2022-12-23T16:06:56.241Z,54.48
2022-12-23T16:09:31.983Z,54.37
2022-12-23T16:12:01.442Z,54.73
2022-12-23T16:14:38.228Z,54.52
2022-12-23T16:17:24.612Z,54.53
2022-12-23T16:19:55.034Z,54.48
2022-12-23T16:22:28.297Z,54.65
2022-12-23T16:25:11.047Z,55.12
2022-12-23T16:27:42.836Z,54.26
2022-12-23T16:30:17.950Z,55.05
2022-12-23T16:32:50.987Z,54.95
2022-12-23T16:35:30.746Z,54.46
2022-12-23T16:38:10.213Z,55.08
2022-12-23T16:40:37.524Z,56.50
2022-12-23T16:43:04.804Z,55.71
2022-12-23T16:45:34.214Z,55.60
2022-12-23T16:48:07.757Z,55.22
2022-12-23T16:50:36.653Z,54.80
2022-12-23T16:53:04.442Z,55.09
2022-12-23T16:55:31.666Z,54.78
2022-12-23T16:57:58.907Z,54.70
2022-12-23T17:00:26.294Z,56.21
2022-12-23T17:02:53.594Z,56.61
2022-12-23T17:05:23.119Z,55.99
2022-12-23T17:07:51.937Z,56.00
2022-12-23T17:10:19.924Z,56.07
2022-12-23T17:12:49.598Z,55.64
2022-12-23T17:15:20.025Z,55.20
2022-12-23T17:17:53.214Z,55.13
2022-12-23T17:20:23.510Z,54.93
2022-12-23T17:22:56.001Z,55.18
2022-12-23T17:25:26.596Z,54.82
2022-12-23T17:27:54.602Z,55.07
2022-12-23T17:30:24.026Z,55.19
2022-12-23T17:32:55.890Z,55.10
2022-12-23T17:35:24.065Z,54.91
2022-12-23T17:37:53.452Z,55.28
2022-12-23T17:40:20.666Z,54.81
2022-12-23T17:42:48.681Z,55.50
2022-12-23T17:45:24.757Z,55.58
2022-12-23T17:47:52.240Z,55.24
2022-12-23T17:50:20.009Z,55.30
2022-12-23T17:52:47.363Z,55.15
2022-12-23T17:55:20.966Z,55.12
2022-12-23T17:57:48.587Z,55.07
2022-12-23T18:00:28.102Z,55.04
2022-12-23T18:03:00.986Z,55.90
2022-12-23T18:05:30.405Z,58.61
2022-12-23T18:08:00.052Z,59.46
2022-12-23T18:10:33.682Z,56.75
2022-12-23T18:13:04.159Z,56.26
2022-12-23T18:15:35.627Z,56.16
2022-12-23T18:18:13.341Z,55.83
2022-12-23T18:20:42.454Z,55.77
2022-12-23T18:23:14.240Z,55.58
2022-12-23T18:25:43.442Z,54.82
2022-12-23T18:28:11.559Z,55.10
2022-12-23T18:30:38.928Z,54.27
2022-12-23T18:33:06.480Z,54.67
2022-12-23T18:35:38.222Z,55.26
2022-12-23T18:38:05.761Z,55.07
2022-12-23T18:40:33.356Z,54.44
2022-12-23T18:43:01.982Z,54.78
2022-12-23T18:45:33.482Z,54.62
2022-12-23T18:48:01.661Z,54.88
2022-12-23T18:50:29.520Z,54.33
2022-12-23T18:52:57.111Z,54.83
2022-12-23T18:55:24.938Z,54.84
2022-12-23T18:57:52.879Z,54.81
2022-12-23T19:00:24.200Z,55.19
2022-12-23T19:02:53.327Z,54.49
2022-12-23T19:05:23.193Z,54.86
2022-12-23T19:07:51.717Z,55.48
2022-12-23T19:10:21.620Z,55.08
2022-12-23T19:12:48.918Z,55.73
2022-12-23T19:15:16.258Z,55.54
2022-12-23T19:17:45.340Z,56.13
2022-12-23T19:20:14.998Z,57.15
2022-12-23T19:22:42.127Z,56.48
2022-12-23T19:25:16.079Z,55.57
2022-12-23T19:27:44.131Z,54.87
2022-12-23T19:30:14.079Z,54.11
2022-12-23T19:32:41.499Z,54.05
2022-12-23T19:35:13.763Z,54.74
2022-12-23T19:37:41.320Z,54.36
2022-12-23T19:40:10.262Z,53.25
2022-12-23T19:42:37.931Z,53.76
2022-12-23T19:45:06.888Z,53.67
2022-12-23T19:47:34.100Z,55.61
2022-12-23T19:50:01.350Z,54.26
2022-12-23T19:52:30.165Z,55.45
2022-12-23T19:54:57.347Z,54.48
2022-12-23T19:57:24.441Z,53.73
2022-12-23T19:59:51.606Z,52.53
2022-12-23T20:02:18.777Z,53.08
2022-12-23T20:04:46.402Z,52.71
2022-12-23T20:07:13.638Z,52.38
2022-12-23T20:09:42.281Z,53.08
2022-12-23T20:12:09.440Z,51.88
2022-12-23T20:14:36.504Z,53.45
2022-12-23T20:17:03.720Z,61.61
2022-12-23T20:19:30.926Z,55.41
2022-12-23T20:21:58.083Z,50.94
2022-12-23T20:24:25.342Z,47.77
2022-12-23T20:26:54.040Z,45.25
2022-12-23T20:29:21.379Z,45.49
2022-12-23T20:31:48.692Z,44.79
2022-12-23T20:34:17.880Z,46.39
2022-12-23T20:36:45.354Z,46.86
2022-12-23T20:39:13.211Z,47.79
2022-12-23T20:41:40.401Z,47.96
2022-12-23T20:44:34.023Z,49.15
2022-12-23T20:46:56.307Z,49.51
2022-12-23T20:49:23.640Z,49.63
2022-12-23T20:51:50.796Z,49.91
2022-12-23T20:54:18.026Z,50.79
2022-12-23T20:56:45.461Z,51.04
2022-12-23T20:59:14.163Z,51.38
2022-12-23T21:01:41.956Z,51.22
2022-12-23T21:04:12.021Z,51.77
2022-12-23T21:06:39.446Z,52.04
2022-12-23T21:09:08.497Z,52.27
2022-12-23T21:11:38.283Z,52.48
2022-12-23T21:14:07.038Z,52.43
2022-12-23T21:16:37.547Z,52.63
2022-12-23T21:19:05.681Z,52.59
2022-12-23T21:21:32.868Z,52.74
2022-12-23T21:24:03.123Z,52.85
2022-12-23T21:26:31.661Z,52.60
2022-12-23T21:29:01.547Z,52.66
2022-12-23T21:31:30.524Z,52.68
2022-12-23T21:33:59.358Z,52.75
2022-12-23T21:36:30.584Z,52.64
2022-12-23T21:38:59.561Z,52.97
2022-12-23T21:41:30.929Z,52.43
2022-12-23T21:43:59.945Z,52.99
2022-12-23T21:46:29.177Z,52.80
2022-12-23T21:48:59.707Z,52.89
2022-12-23T21:51:35.026Z,52.94
2022-12-23T21:54:06.105Z,53.00
2022-12-23T21:56:33.909Z,53.33
2022-12-23T21:59:03.679Z,54.05
2022-12-23T22:01:32.312Z,53.31
2022-12-23T22:04:01.241Z,53.40
2022-12-23T22:06:32.308Z,53.22
2022-12-23T22:09:01.187Z,53.81
2022-12-23T22:11:30.720Z,53.67
2022-12-23T22:13:59.652Z,53.91
2022-12-23T22:16:29.583Z,53.57
2022-12-23T22:18:59.023Z,53.86
2022-12-23T22:21:30.487Z,53.76
2022-12-23T22:23:58.323Z,53.76
2022-12-23T22:26:29.083Z,53.12
2022-12-23T22:28:58.022Z,53.75
2022-12-23T22:31:32.326Z,53.65
2022-12-23T22:34:00.674Z,53.41
2022-12-23T22:36:29.643Z,53.39
2022-12-23T22:38:59.644Z,53.86
2022-12-23T22:41:28.197Z,53.20
2022-12-23T22:43:56.225Z,53.83
2022-12-23T22:46:25.177Z,53.88
2022-12-23T22:48:53.485Z,53.88
2022-12-23T22:51:22.752Z,53.62
2022-12-23T22:53:51.806Z,53.93
2022-12-23T22:56:20.748Z,53.71
2022-12-23T22:58:48.832Z,54.15
2022-12-23T23:01:22.332Z,53.36
2022-12-23T23:03:50.477Z,53.85
2022-12-23T23:06:17.803Z,53.37
2022-12-23T23:08:44.960Z,54.05
2022-12-23T23:11:13.501Z,53.19
2022-12-23T23:13:40.786Z,53.35
2022-12-23T23:16:08.877Z,54.07
2022-12-23T23:18:36.059Z,54.13
2022-12-23T23:21:03.532Z,55.05
2022-12-23T23:23:31.303Z,54.73
2022-12-23T23:25:58.838Z,54.26
2022-12-23T23:28:28.861Z,55.58
2022-12-23T23:31:23.928Z,55.10
2022-12-23T23:33:43.445Z,55.45
2022-12-23T23:36:11.529Z,54.57
2022-12-23T23:38:39.062Z,54.42
2022-12-23T23:41:06.277Z,55.23
2022-12-23T23:43:34.999Z,54.47
2022-12-23T23:46:02.160Z,54.72
2022-12-23T23:48:29.377Z,54.43
2022-12-23T23:51:05.165Z,54.82
2022-12-23T23:53:32.523Z,54.66
2022-12-23T23:56:05.321Z,54.18
2022-12-23T23:58:34.872Z,54.44
